createdAt,value
2022-08-12T00:00:55.291Z,59.65
2022-08-12T00:03:40.997Z,59.35
2022-08-12T00:06:27.253Z,60.23
2022-08-12T00:09:13.433Z,59.20
2022-08-12T00:12:00.071Z,58.63
2022-08-12T00:14:46.089Z,59.37
2022-08-12T00:17:32.297Z,58.59
2022-08-12T00:20:18.268Z,58.52
2022-08-12T00:23:06.008Z,58.70
2022-08-12T00:26:21.104Z,58.54
2022-08-12T00:29:08.620Z,59.53
2022-08-12T00:31:54.464Z,59.75
2022-08-12T00:34:40.132Z,59.57
2022-08-12T00:37:26.246Z,59.17
2022-08-12T00:40:15.606Z,59.50
2022-08-12T00:42:42.968Z,59.19
2022-08-12T00:45:10.985Z,59.03
2022-08-12T00:47:39.261Z,59.37
2022-08-12T00:50:07.494Z,59.47
2022-08-12T00:52:35.905Z,59.88
2022-08-12T00:55:05.534Z,59.70
2022-08-12T00:57:38.483Z,59.82
2022-08-12T01:00:13.612Z,59.89
2022-08-12T01:02:46.338Z,60.39
2022-08-12T01:05:37.180Z,61.05
2022-08-12T01:08:24.388Z,60.64
2022-08-12T01:11:10.331Z,60.66
2022-08-12T01:13:44.811Z,60.39
2022-08-12T01:16:12.227Z,60.44
2022-08-12T01:18:40.659Z,60.98
2022-08-12T01:21:39.162Z,60.94
2022-08-12T01:24:31.073Z,61.19
2022-08-12T01:27:02.553Z,60.61
2022-08-12T01:29:34.617Z,60.78
2022-08-12T01:32:08.896Z,60.81
2022-08-12T01:34:39.686Z,61.60
2022-08-12T01:37:09.787Z,61.51
2022-08-12T01:40:35.260Z,60.63
2022-08-12T01:43:08.871Z,60.55
2022-08-12T01:45:47.550Z,61.27
2022-08-12T01:48:47.999Z,62.12
2022-08-12T01:52:15.288Z,61.27
2022-08-12T01:54:29.840Z,61.92
2022-08-12T01:57:07.099Z,61.57
2022-08-12T02:00:02.047Z,61.78
2022-08-12T02:03:19.996Z,62.67
2022-08-12T02:06:38.823Z,62.89
2022-08-12T02:09:29.436Z,61.96
2022-08-12T02:12:39.169Z,62.26
2022-08-12T02:15:27.548Z,61.63
2022-08-12T02:18:37.648Z,62.01
2022-08-12T02:21:13.595Z,62.01
2022-08-12T02:23:42.088Z,62.50
2022-08-12T02:26:13.154Z,63.14
2022-08-12T02:28:40.380Z,62.39
2022-08-12T02:31:09.196Z,62.31
2022-08-12T02:33:37.992Z,62.93
2022-08-12T02:36:06.387Z,63.33
2022-08-12T02:38:33.951Z,64.04
2022-08-12T02:41:05.402Z,64.73
2022-08-12T02:44:09.434Z,63.69
2022-08-12T02:46:39.780Z,63.72
2022-08-12T02:49:19.473Z,63.01
2022-08-12T02:51:46.492Z,63.60
2022-08-12T02:54:13.856Z,64.25
2022-08-12T02:56:50.589Z,63.90
2022-08-12T02:59:23.789Z,64.31
2022-08-12T03:02:03.603Z,64.76
2022-08-12T03:04:43.674Z,64.94
2022-08-12T03:07:16.669Z,63.99
2022-08-12T03:10:04.238Z,65.16
2022-08-12T03:12:49.459Z,65.79
2022-08-12T03:15:22.982Z,65.72
2022-08-12T03:18:25.695Z,65.39
2022-08-12T03:20:58.041Z,66.33
2022-08-12T03:23:28.854Z,65.60
2022-08-12T03:26:03.392Z,65.42
2022-08-12T03:28:53.431Z,65.18
2022-08-12T03:31:32.463Z,66.37
2022-08-12T03:34:12.762Z,66.19
2022-08-12T03:36:42.377Z,65.17
2022-08-12T03:39:16.091Z,65.29
2022-08-12T03:42:11.270Z,64.42
2022-08-12T03:45:06.686Z,64.75
2022-08-12T03:47:57.315Z,64.72
2022-08-12T03:50:44.210Z,64.63
2022-08-12T03:53:31.078Z,65.60
2022-08-12T03:56:16.765Z,65.90
2022-08-12T03:59:02.708Z,66.37
2022-08-12T04:01:29.991Z,67.58
2022-08-12T04:03:58.136Z,66.12
2022-08-12T04:06:35.852Z,66.11
2022-08-12T04:09:15.619Z,65.81
2022-08-12T04:12:04.178Z,66.84
2022-08-12T04:14:32.671Z,66.39
2022-08-12T04:17:01.032Z,66.88
2022-08-12T04:19:29.375Z,67.48
2022-08-12T04:22:02.115Z,67.34
2022-08-12T04:24:36.705Z,67.58
2022-08-12T04:27:09.942Z,66.93
2022-08-12T04:30:30.176Z,67.25
2022-08-12T04:32:26.398Z,67.74
2022-08-12T04:34:54.189Z,67.10
2022-08-12T04:37:21.255Z,66.88
2022-08-12T04:39:49.215Z,66.18
2022-08-12T04:42:16.498Z,67.14
2022-08-12T04:44:44.505Z,66.70
2022-08-12T04:47:14.460Z,66.96
2022-08-12T04:49:43.451Z,67.20
2022-08-12T04:52:11.051Z,66.78
2022-08-12T04:54:38.846Z,66.28
2022-08-12T04:57:09.743Z,65.70
2022-08-12T04:59:46.781Z,65.09
2022-08-12T05:02:22.128Z,62.71
2022-08-12T05:05:00.514Z,61.77
2022-08-12T05:07:28.266Z,53.73
2022-08-12T05:10:01.133Z,55.40
2022-08-12T05:12:41.506Z,57.16
2022-08-12T05:15:27.555Z,57.39
2022-08-12T05:17:56.053Z,59.09
2022-08-12T05:20:26.179Z,59.27
2022-08-12T05:23:13.049Z,60.25
2022-08-12T05:25:46.098Z,60.79
2022-08-12T05:28:14.903Z,60.66
2022-08-12T05:30:43.171Z,60.60
2022-08-12T05:33:12.195Z,59.32
2022-08-12T05:35:43.189Z,58.41
2022-08-12T05:38:32.340Z,54.97
2022-08-12T05:41:01.224Z,49.98
2022-08-12T05:43:29.031Z,40.00
2022-08-12T05:45:56.267Z,33.98
2022-08-12T05:48:23.478Z,30.35
2022-08-12T05:50:50.749Z,28.44
2022-08-12T05:53:17.750Z,27.73
2022-08-12T05:55:44.806Z,27.90
2022-08-12T05:58:11.809Z,27.83
2022-08-12T06:00:38.961Z,25.82
2022-08-12T06:03:08.275Z,26.84
2022-08-12T06:05:54.558Z,25.71
2022-08-12T06:08:23.969Z,25.24
2022-08-12T06:10:51.430Z,25.42
2022-08-12T06:13:28.322Z,26.71
2022-08-12T06:15:56.509Z,24.18
2022-08-12T06:18:29.224Z,24.34
2022-08-12T06:21:00.170Z,23.29
2022-08-12T06:23:29.825Z,25.61
2022-08-12T06:25:58.783Z,24.42
2022-08-12T06:28:30.595Z,22.75
2022-08-12T06:31:24.353Z,23.50
2022-08-12T06:33:59.447Z,29.26
2022-08-12T06:36:35.483Z,30.86
2022-08-12T06:39:04.985Z,31.03
2022-08-12T06:42:28.547Z,28.49
2022-08-12T06:44:50.539Z,24.49
2022-08-12T06:47:19.490Z,23.93
2022-08-12T06:49:46.774Z,22.80
2022-08-12T06:52:13.865Z,21.01
2022-08-12T06:54:44.392Z,21.30
2022-08-12T06:58:05.341Z,20.90
2022-08-12T06:59:58.702Z,21.53
2022-08-12T07:02:25.945Z,21.47
2022-08-12T07:04:52.981Z,21.80
2022-08-12T07:07:20.004Z,20.78
2022-08-12T07:10:06.983Z,21.27
2022-08-12T07:12:34.412Z,21.39
2022-08-12T07:15:01.929Z,20.94
2022-08-12T07:17:37.755Z,21.97
2022-08-12T07:20:51.129Z,22.19
2022-08-12T07:23:03.090Z,21.79
2022-08-12T07:25:40.675Z,22.36
2022-08-12T07:28:16.848Z,22.12
2022-08-12T07:30:46.879Z,22.09
2022-08-12T07:33:16.953Z,23.52
2022-08-12T07:35:47.982Z,23.30
2022-08-12T07:38:35.620Z,24.15
2022-08-12T07:41:15.646Z,25.63
2022-08-12T07:43:53.939Z,25.78
2022-08-12T07:46:43.318Z,25.87
2022-08-12T07:49:14.203Z,25.40
2022-08-12T07:51:43.216Z,26.15
2022-08-12T07:54:12.948Z,27.04
2022-08-12T07:56:42.506Z,25.38
2022-08-12T07:59:10.313Z,25.82
2022-08-12T08:01:38.382Z,28.20
2022-08-12T08:04:25.713Z,30.58
2022-08-12T08:06:53.761Z,30.35
2022-08-12T08:09:23.820Z,31.16
2022-08-12T08:12:18.881Z,32.60
2022-08-12T08:14:49.726Z,31.83
2022-08-12T08:17:17.519Z,32.69
2022-08-12T08:20:03.299Z,31.44
2022-08-12T08:22:40.741Z,32.03
2022-08-12T08:25:35.338Z,33.15
2022-08-12T08:28:04.386Z,31.27
2022-08-12T08:30:33.156Z,32.08
2022-08-12T08:33:00.228Z,32.11
2022-08-12T08:35:35.780Z,30.72
2022-08-12T08:38:32.354Z,32.80
2022-08-12T08:42:16.729Z,35.96
2022-08-12T08:44:12.237Z,37.92
2022-08-12T08:46:44.538Z,36.81
2022-08-12T08:49:12.920Z,36.59
2022-08-12T08:51:40.562Z,38.28
2022-08-12T08:54:17.229Z,39.99
2022-08-12T08:56:44.644Z,39.65
2022-08-12T08:59:13.579Z,39.76
2022-08-12T09:01:44.534Z,38.37
2022-08-12T09:05:11.494Z,39.87
2022-08-12T09:07:18.155Z,39.13
2022-08-12T09:12:55.240Z,39.82
2022-08-12T09:15:35.674Z,41.38
2022-08-12T09:18:09.089Z,39.92
2022-08-12T09:20:38.764Z,41.44
2022-08-12T09:23:57.124Z,40.58
2022-08-12T09:28:53.128Z,41.03
2022-08-12T09:32:03.915Z,41.01
2022-08-12T09:34:28.602Z,41.58
2022-08-12T09:37:02.524Z,41.94
2022-08-12T09:40:04.395Z,43.45
2022-08-12T09:43:16.072Z,45.18
2022-08-12T09:46:10.985Z,44.96
2022-08-12T09:48:36.067Z,46.23
2022-08-12T09:51:17.070Z,46.88
2022-08-12T09:54:09.048Z,48.22
2022-08-12T09:57:01.040Z,47.93
2022-08-12T10:00:14.575Z,48.53
2022-08-12T10:02:44.332Z,49.87
2022-08-12T10:05:01.786Z,50.94
2022-08-12T10:07:39.471Z,51.47
2022-08-12T10:10:22.533Z,51.90
2022-08-12T10:13:35.854Z,52.28
2022-08-12T10:16:23.115Z,51.77
2022-08-12T10:18:59.848Z,52.67
2022-08-12T10:21:38.850Z,51.39
2022-08-12T10:24:14.678Z,50.31
2022-08-12T10:27:07.065Z,49.09
2022-08-12T10:30:37.939Z,49.31
2022-08-12T10:32:43.831Z,48.11
2022-08-12T10:35:15.840Z,48.82
2022-08-12T10:38:37.677Z,47.61
2022-08-12T10:40:34.025Z,48.37
2022-08-12T10:43:24.851Z,49.79
2022-08-12T10:45:58.442Z,49.98
2022-08-12T10:48:33.485Z,49.38
2022-08-12T10:51:51.876Z,49.64
2022-08-12T10:54:00.819Z,50.47
2022-08-12T10:56:34.807Z,50.26
2022-08-12T10:59:10.512Z,50.45
2022-08-12T11:04:17.918Z,50.19
2022-08-12T11:04:39.456Z,50.28
2022-08-12T11:08:34.412Z,50.97
2022-08-12T11:10:02.534Z,52.72
2022-08-12T11:12:55.585Z,52.87
2022-08-12T11:15:33.539Z,54.28
2022-08-12T11:18:11.983Z,54.93
2022-08-12T11:20:47.921Z,55.22
2022-08-12T11:23:26.032Z,54.92
2022-08-12T11:26:05.330Z,55.10
2022-08-12T11:28:37.159Z,55.16
2022-08-12T11:31:11.946Z,55.33
2022-08-12T11:34:05.996Z,55.11
2022-08-12T11:36:30.653Z,55.35
2022-08-12T11:38:58.447Z,54.74
2022-08-12T11:41:33.235Z,55.08
2022-08-12T11:44:36.272Z,55.77
2022-08-12T11:46:52.892Z,54.99
2022-08-12T11:49:31.400Z,54.77
2022-08-12T11:52:03.985Z,53.98
2022-08-12T11:54:32.031Z,53.82
2022-08-12T11:57:02.808Z,53.01
2022-08-12T12:02:35.962Z,53.50
2022-08-12T12:05:03.067Z,52.98
2022-08-12T12:08:36.222Z,53.18
2022-08-12T12:10:21.468Z,53.15
2022-08-12T12:12:49.501Z,52.95
2022-08-12T12:15:25.418Z,52.33
2022-08-12T12:18:06.017Z,53.23
2022-08-12T12:20:34.851Z,53.75
2022-08-12T12:23:02.015Z,52.10
2022-08-12T12:26:06.812Z,52.18
2022-08-12T12:28:19.980Z,52.52
2022-08-12T12:31:04.029Z,52.34
2022-08-12T12:33:57.096Z,51.78
2022-08-12T12:36:23.194Z,52.12
2022-08-12T12:38:53.592Z,52.46
2022-08-12T12:41:20.611Z,52.03
2022-08-12T12:43:56.494Z,50.64
2022-08-12T12:46:31.348Z,49.92
2022-08-12T12:48:58.447Z,50.37
2022-08-12T12:51:56.448Z,50.65
2022-08-12T12:54:12.761Z,50.94
2022-08-12T12:56:44.486Z,51.39
2022-08-12T12:59:56.723Z,53.98
2022-08-12T13:02:06.203Z,55.14
2022-08-12T13:04:37.323Z,56.47
2022-08-12T13:07:05.968Z,61.15
2022-08-12T13:09:36.205Z,64.62
2022-08-12T13:12:10.418Z,65.18
2022-08-12T13:14:39.800Z,61.20
2022-08-12T13:17:14.575Z,62.29
2022-08-12T13:19:48.406Z,63.16
2022-08-12T13:22:23.679Z,65.20
2022-08-12T13:24:56.426Z,64.38
2022-08-12T13:27:35.225Z,67.79
2022-08-12T13:30:10.969Z,68.34
2022-08-12T13:32:56.691Z,68.95
2022-08-12T13:35:32.929Z,69.68
2022-08-12T13:38:02.751Z,70.27
2022-08-12T13:40:33.526Z,69.46
2022-08-12T13:43:02.457Z,70.37
2022-08-12T13:45:34.270Z,71.05
2022-08-12T13:48:04.968Z,71.65
2022-08-12T13:50:36.562Z,71.67
2022-08-12T13:53:24.895Z,73.17
2022-08-12T13:56:01.675Z,73.95
2022-08-12T13:58:32.991Z,75.29
2022-08-12T14:01:05.558Z,72.72
2022-08-12T14:03:50.706Z,71.07
2022-08-12T14:06:19.628Z,71.27
2022-08-12T14:08:49.642Z,72.97
2022-08-12T14:11:18.412Z,72.91
2022-08-12T14:14:04.101Z,74.30
2022-08-12T14:16:48.202Z,73.01
2022-08-12T14:19:21.986Z,73.66
2022-08-12T14:21:59.249Z,72.16
2022-08-12T14:24:30.656Z,72.52
2022-08-12T14:26:58.720Z,71.79
2022-08-12T14:29:56.066Z,71.34
2022-08-12T14:32:17.854Z,71.37
2022-08-12T14:34:49.189Z,71.22
2022-08-12T14:37:56.540Z,70.80
2022-08-12T14:40:05.194Z,70.94
2022-08-12T14:42:32.321Z,70.96
2022-08-12T14:45:01.613Z,70.75
2022-08-12T14:47:35.426Z,70.68
2022-08-12T14:50:37.407Z,72.30
2022-08-12T14:58:31.864Z,62.82
2022-08-12T15:01:21.493Z,57.85
2022-08-12T15:03:57.853Z,58.03
2022-08-12T15:06:39.422Z,57.23
2022-08-12T15:09:13.580Z,57.86
2022-08-12T15:11:54.418Z,57.02
2022-08-12T15:14:27.410Z,58.13
2022-08-12T15:16:54.756Z,58.16
2022-08-12T15:20:31.832Z,57.11
2022-08-12T15:22:37.786Z,55.49
2022-08-12T15:24:56.800Z,55.59
2022-08-12T15:28:10.788Z,54.51
2022-08-12T15:30:11.028Z,54.86
2022-08-12T15:32:38.006Z,54.41
2022-08-12T15:35:12.093Z,55.42
2022-08-12T15:37:58.948Z,55.42
2022-08-12T15:40:30.241Z,55.52
2022-08-12T15:43:03.977Z,55.76
2022-08-12T15:45:39.136Z,55.90
2022-08-12T15:48:17.080Z,56.01
2022-08-12T15:50:53.103Z,57.39
2022-08-12T15:53:42.616Z,56.54
2022-08-12T15:56:12.501Z,57.77
2022-08-12T15:58:43.625Z,57.71
2022-08-12T16:01:17.442Z,57.91
2022-08-12T16:04:00.342Z,57.49
2022-08-12T16:06:52.061Z,58.32
2022-08-12T16:09:21.719Z,58.55
2022-08-12T16:11:48.870Z,58.46
2022-08-12T16:14:16.424Z,59.30
2022-08-12T16:16:43.845Z,61.28
2022-08-12T16:20:03.271Z,64.33
2022-08-12T16:22:07.188Z,68.23
2022-08-12T16:24:43.680Z,71.62
2022-08-12T16:27:11.193Z,72.61
2022-08-12T16:29:53.137Z,73.23
2022-08-12T16:32:24.180Z,74.91
2022-08-12T16:34:54.829Z,79.99
2022-08-12T16:37:32.379Z,85.56
2022-08-12T16:40:06.065Z,86.56
2022-08-12T16:42:42.056Z,87.63
2022-08-12T16:45:23.394Z,85.99
2022-08-12T16:48:00.705Z,85.07
2022-08-12T16:50:30.865Z,87.58
2022-08-12T16:53:02.116Z,85.82
2022-08-12T16:55:41.881Z,84.90
2022-08-12T16:58:28.342Z,84.50
2022-08-12T17:01:02.879Z,84.57
2022-08-12T17:03:37.695Z,85.46
2022-08-12T17:06:07.257Z,85.74
2022-08-12T17:08:38.322Z,85.45
2022-08-12T17:11:17.996Z,86.86
2022-08-12T17:13:53.391Z,84.08
2022-08-12T17:16:21.724Z,85.39
2022-08-12T17:18:57.815Z,88.15
2022-08-12T17:21:40.683Z,86.58
2022-08-12T17:24:21.462Z,88.16
2022-08-12T17:26:53.794Z,88.75
2022-08-12T17:29:24.210Z,88.82
2022-08-12T17:32:02.934Z,88.15
2022-08-12T17:34:51.081Z,88.48
2022-08-12T17:37:18.080Z,89.49
2022-08-12T17:40:16.017Z,89.75
2022-08-12T17:42:35.657Z,89.76
2022-08-12T17:45:18.619Z,90.03
2022-08-12T17:48:01.390Z,89.97
2022-08-12T17:50:39.562Z,91.60
2022-08-12T17:53:10.766Z,93.15
2022-08-12T17:55:47.703Z,92.37
2022-08-12T17:58:36.996Z,92.25
2022-08-12T18:01:06.323Z,91.86
2022-08-12T18:03:57.679Z,93.05
2022-08-12T18:06:31.114Z,92.93
2022-08-12T18:09:09.450Z,93.02
2022-08-12T18:12:04.242Z,92.81
2022-08-12T18:14:36.625Z,92.72
2022-08-12T18:17:08.295Z,93.78
2022-08-12T18:20:05.626Z,92.37
2022-08-12T18:22:30.783Z,92.25
2022-08-12T18:25:08.750Z,92.99
2022-08-12T18:28:15.827Z,93.53
2022-08-12T18:30:52.975Z,93.19
2022-08-12T18:33:25.663Z,93.64
2022-08-12T18:35:56.659Z,93.07
2022-08-12T18:38:26.291Z,92.15
2022-08-12T18:41:21.679Z,92.53
2022-08-12T18:44:07.854Z,92.10
2022-08-12T18:46:45.885Z,93.33
2022-08-12T18:49:30.799Z,92.75
2022-08-12T18:52:04.829Z,93.22
2022-08-12T18:54:48.956Z,93.12
2022-08-12T18:58:06.048Z,93.63
2022-08-12T19:00:22.220Z,92.76
2022-08-12T19:02:53.331Z,92.94
2022-08-12T19:05:53.663Z,93.67
2022-08-12T19:08:13.129Z,93.19
2022-08-12T19:10:50.787Z,93.67
2022-08-12T19:13:40.034Z,93.90
2022-08-12T19:16:10.853Z,93.42
2022-08-12T19:18:41.002Z,93.95
2022-08-12T19:21:16.655Z,93.50
2022-08-12T19:24:07.644Z,93.87
2022-08-12T19:26:35.846Z,94.08
2022-08-12T19:29:05.331Z,93.96
2022-08-12T19:31:45.169Z,93.45
2022-08-12T19:38:04.173Z,93.64
2022-08-12T19:40:33.117Z,94.49
2022-08-12T19:43:17.847Z,94.31
2022-08-12T19:45:53.684Z,93.69
2022-08-12T19:48:24.733Z,93.45
2022-08-12T19:50:57.420Z,92.19
2022-08-12T19:53:27.699Z,92.34
2022-08-12T19:55:57.542Z,93.65
2022-08-12T19:58:26.860Z,93.13
2022-08-12T20:00:55.457Z,93.64
2022-08-12T20:03:38.326Z,93.21
2022-08-12T20:06:08.745Z,94.35
2022-08-12T20:08:49.264Z,93.19
2022-08-12T20:12:12.014Z,93.34
2022-08-12T20:14:19.287Z,93.35
2022-08-12T20:16:56.319Z,93.19
2022-08-12T20:19:28.576Z,92.74
2022-08-12T20:22:24.705Z,93.54
2022-08-12T20:25:00.963Z,94.61
2022-08-12T20:27:53.893Z,93.90
2022-08-12T20:30:20.728Z,92.80
2022-08-12T20:33:18.524Z,93.57
2022-08-12T20:36:13.705Z,94.18
2022-08-12T20:38:38.392Z,95.15
2022-08-12T20:41:17.873Z,96.70
2022-08-12T20:43:57.238Z,96.95
2022-08-12T20:46:32.287Z,97.66
2022-08-12T20:49:17.345Z,97.33
2022-08-12T20:51:54.763Z,97.69
2022-08-12T20:54:23.035Z,97.65
2022-08-12T20:57:07.347Z,97.81
2022-08-12T20:59:47.850Z,95.91
2022-08-12T21:02:15.647Z,97.54
2022-08-12T21:05:01.143Z,98.22
2022-08-12T21:07:34.282Z,96.96
2022-08-12T21:10:08.197Z,95.70
2022-08-12T21:12:38.288Z,96.33
2022-08-12T21:15:22.951Z,95.61
2022-08-12T21:18:10.843Z,97.42
2022-08-12T21:20:51.458Z,97.51
2022-08-12T21:23:21.357Z,98.84
2022-08-12T21:25:50.946Z,96.93
2022-08-12T21:28:20.642Z,95.12
2022-08-12T21:31:11.587Z,94.44
2022-08-12T21:34:07.958Z,96.03
2022-08-12T21:36:34.383Z,97.75
2022-08-12T21:39:20.323Z,95.65
2022-08-12T21:41:52.031Z,96.31
2022-08-12T21:45:45.978Z,95.80
2022-08-12T21:47:20.798Z,96.38
2022-08-12T21:50:03.102Z,96.17
2022-08-12T21:52:40.562Z,95.89
2022-08-12T21:55:17.992Z,95.17
2022-08-12T21:57:53.414Z,96.58
2022-08-12T22:00:33.002Z,96.58
2022-08-12T22:04:01.271Z,98.43
2022-08-12T22:06:20.359Z,99.68
2022-08-12T22:09:02.321Z,98.91
2022-08-12T22:11:42.379Z,99.68
2022-08-12T22:14:17.983Z,98.04
2022-08-12T22:16:51.905Z,98.76
2022-08-12T22:19:22.950Z,97.87
2022-08-12T22:21:54.803Z,92.67
2022-08-12T22:24:27.076Z,93.92
2022-08-12T22:26:55.634Z,94.01
2022-08-12T22:29:41.204Z,94.29
2022-08-12T22:32:11.957Z,96.87
2022-08-12T22:34:39.831Z,97.45
2022-08-12T22:37:11.302Z,95.29
2022-08-12T22:39:43.958Z,95.75
2022-08-12T22:42:30.744Z,97.98
2022-08-12T22:45:17.060Z,97.15
2022-08-12T22:47:54.116Z,96.75
2022-08-12T22:50:28.082Z,97.34
2022-08-12T22:53:15.537Z,97.90
2022-08-12T22:56:00.193Z,98.21
2022-08-12T22:58:34.025Z,97.17
2022-08-12T23:01:01.838Z,98.55
2022-08-12T23:03:49.409Z,98.26
2022-08-12T23:06:19.901Z,100.00
2022-08-12T23:08:48.086Z,100.00
2022-08-12T23:11:16.234Z,100.00
2022-08-12T23:13:57.011Z,100.00
2022-08-12T23:16:31.663Z,100.00
2022-08-12T23:19:18.243Z,100.00
2022-08-12T23:22:05.356Z,100.00
2022-08-12T23:24:53.732Z,100.00
2022-08-12T23:27:52.336Z,100.00
2022-08-12T23:30:31.894Z,100.00
2022-08-12T23:33:19.937Z,100.00
2022-08-12T23:36:02.580Z,100.00
2022-08-12T23:38:32.276Z,100.00
2022-08-12T23:41:02.659Z,100.00
2022-08-12T23:43:40.023Z,100.00
2022-08-12T23:46:10.444Z,100.00
2022-08-12T23:48:38.904Z,100.00
2022-08-12T23:51:22.465Z,100.00
2022-08-12T23:54:02.558Z,100.00
2022-08-12T23:56:33.135Z,100.00
2022-08-12T23:59:04.003Z,100.00
